sensor_id;sensor_type;location;lat;lon;timestamp;pressure;altitude;pressure_sealevel;temperature
38249;BMP280;24045;51.138;17.126;2023-08-21T00:06:10;100764.66;;;22.02
38249;BMP280;24045;51.138;17.126;2023-08-21T00:21:13;100767.54;;;21.89
38249;BMP280;24045;51.138;17.126;2023-08-21T00:36:16;100766.21;;;21.70
38249;BMP280;24045;51.138;17.126;2023-08-21T00:51:19;100768.86;;;21.55
38249;BMP280;24045;51.138;17.126;2023-08-21T01:06:21;100755.05;;;21.40
38249;BMP280;24045;51.138;17.126;2023-08-21T01:21:24;100736.95;;;21.35
38249;BMP280;24045;51.138;17.126;2023-08-21T01:36:28;100745.51;;;21.40
38249;BMP280;24045;51.138;17.126;2023-08-21T01:51:31;100753.55;;;21.54
38249;BMP280;24045;51.138;17.126;2023-08-21T02:06:34;100740.39;;;21.67
38249;BMP280;24045;51.138;17.126;2023-08-21T02:21:36;100782.18;;;21.78
38249;BMP280;24045;51.138;17.126;2023-08-21T02:36:39;100793.12;;;21.92
38249;BMP280;24045;51.138;17.126;2023-08-21T02:51:42;100816.98;;;22.16
38249;BMP280;24045;51.138;17.126;2023-08-21T03:06:45;100856.43;;;22.21
38249;BMP280;24045;51.138;17.126;2023-08-21T03:21:47;100917.48;;;22.23
38249;BMP280;24045;51.138;17.126;2023-08-21T03:36:50;100829.48;;;22.00
38249;BMP280;24045;51.138;17.126;2023-08-21T03:51:53;100820.82;;;21.96
38249;BMP280;24045;51.138;17.126;2023-08-21T04:06:56;100844.27;;;21.97
38249;BMP280;24045;51.138;17.126;2023-08-21T04:21:58;100846.73;;;21.75
38249;BMP280;24045;51.138;17.126;2023-08-21T04:37:01;100850.91;;;21.45
38249;BMP280;24045;51.138;17.126;2023-08-21T04:52:04;100900.06;;;21.46
38249;BMP280;24045;51.138;17.126;2023-08-21T05:07:07;100864.48;;;21.26
38249;BMP280;24045;51.138;17.126;2023-08-21T05:22:10;100877.69;;;21.08
38249;BMP280;24045;51.138;17.126;2023-08-21T05:37:13;100889.16;;;21.06
38249;BMP280;24045;51.138;17.126;2023-08-21T05:52:15;100888.73;;;19.93
38249;BMP280;24045;51.138;17.126;2023-08-21T06:07:18;100884.71;;;19.61
38249;BMP280;24045;51.138;17.126;2023-08-21T06:22:21;100903.09;;;19.57
38249;BMP280;24045;51.138;17.126;2023-08-21T06:37:24;100911.60;;;19.61
38249;BMP280;24045;51.138;17.126;2023-08-21T06:52:30;100915.65;;;19.67
38249;BMP280;24045;51.138;17.126;2023-08-21T07:07:33;100936.58;;;20.49
38249;BMP280;24045;51.138;17.126;2023-08-21T07:22:36;100948.73;;;22.25
38249;BMP280;24045;51.138;17.126;2023-08-21T07:37:39;100974.05;;;22.19
38249;BMP280;24045;51.138;17.126;2023-08-21T07:52:43;100988.69;;;22.27
38249;BMP280;24045;51.138;17.126;2023-08-21T08:07:46;100984.23;;;21.74
38249;BMP280;24045;51.138;17.126;2023-08-21T08:22:49;100970.98;;;22.23
38249;BMP280;24045;51.138;17.126;2023-08-21T08:37:52;100978.54;;;23.43
38249;BMP280;24045;51.138;17.126;2023-08-21T08:52:55;100965.90;;;25.99
38249;BMP280;24045;51.138;17.126;2023-08-21T09:08:17;100961.59;;;26.53
38249;BMP280;24045;51.138;17.126;2023-08-21T09:23:20;100953.30;;;27.14
38249;BMP280;24045;51.138;17.126;2023-08-21T09:38:25;100949.08;;;27.43
38249;BMP280;24045;51.138;17.126;2023-08-21T09:53:28;100944.54;;;26.83
38249;BMP280;24045;51.138;17.126;2023-08-21T10:08:35;100932.61;;;26.65
38249;BMP280;24045;51.138;17.126;2023-08-21T10:23:39;100915.30;;;27.09
38249;BMP280;24045;51.138;17.126;2023-08-21T10:39:00;100914.11;;;27.94
38249;BMP280;24045;51.138;17.126;2023-08-21T10:54:13;100919.52;;;27.53
38249;BMP280;24045;51.138;17.126;2023-08-21T11:09:16;100919.81;;;27.56
38249;BMP280;24045;51.138;17.126;2023-08-21T11:24:19;100917.76;;;28.14
38249;BMP280;24045;51.138;17.126;2023-08-21T11:39:22;100895.48;;;29.10
38249;BMP280;24045;51.138;17.126;2023-08-21T11:54:25;100868.60;;;28.80
38249;BMP280;24045;51.138;17.126;2023-08-21T12:09:28;100874.47;;;28.80
38249;BMP280;24045;51.138;17.126;2023-08-21T12:24:31;100864.70;;;29.07
38249;BMP280;24045;51.138;17.126;2023-08-21T12:39:34;100861.58;;;29.06
38249;BMP280;24045;51.138;17.126;2023-08-21T12:54:37;100844.55;;;29.22
38249;BMP280;24045;51.138;17.126;2023-08-21T13:09:40;100832.75;;;28.62
38249;BMP280;24045;51.138;17.126;2023-08-21T13:24:43;100831.12;;;28.30
38249;BMP280;24045;51.138;17.126;2023-08-21T13:39:50;100826.56;;;28.51
38249;BMP280;24045;51.138;17.126;2023-08-21T13:54:53;100819.13;;;28.77
38249;BMP280;24045;51.138;17.126;2023-08-21T14:09:56;100801.89;;;29.26
38249;BMP280;24045;51.138;17.126;2023-08-21T14:24:59;100798.48;;;29.02
38249;BMP280;24045;51.138;17.126;2023-08-21T14:40:02;100789.62;;;28.81
38249;BMP280;24045;51.138;17.126;2023-08-21T14:55:10;100782.55;;;28.56
38249;BMP280;24045;51.138;17.126;2023-08-21T15:10:13;100776.39;;;28.27
38249;BMP280;24045;51.138;17.126;2023-08-21T15:25:16;100759.39;;;28.19
38249;BMP280;24045;51.138;17.126;2023-08-21T15:40:19;100759.64;;;28.20
38249;BMP280;24045;51.138;17.126;2023-08-21T15:55:22;100760.43;;;28.02
38249;BMP280;24045;51.138;17.126;2023-08-21T16:10:25;100772.23;;;27.93
38249;BMP280;24045;51.138;17.126;2023-08-21T16:25:28;100765.91;;;27.77
38249;BMP280;24045;51.138;17.126;2023-08-21T16:40:31;100761.23;;;27.78
38249;BMP280;24045;51.138;17.126;2023-08-21T16:55:34;100760.40;;;27.60
38249;BMP280;24045;51.138;17.126;2023-08-21T17:10:37;100760.66;;;27.25
38249;BMP280;24045;51.138;17.126;2023-08-21T17:25:41;100777.88;;;26.96
38249;BMP280;24045;51.138;17.126;2023-08-21T17:40:44;100768.86;;;26.62
38249;BMP280;24045;51.138;17.126;2023-08-21T17:55:47;100769.16;;;26.21
38249;BMP280;24045;51.138;17.126;2023-08-21T18:10:51;100758.62;;;25.78
38249;BMP280;24045;51.138;17.126;2023-08-21T18:25:54;100777.55;;;25.08
38249;BMP280;24045;51.138;17.126;2023-08-21T18:40:58;100783.75;;;24.24
38249;BMP280;24045;51.138;17.126;2023-08-21T18:56:01;100794.83;;;23.45
38249;BMP280;24045;51.138;17.126;2023-08-21T19:11:04;100798.91;;;22.80
38249;BMP280;24045;51.138;17.126;2023-08-21T19:26:07;100801.48;;;22.37
38249;BMP280;24045;51.138;17.126;2023-08-21T19:41:11;100799.61;;;21.95
38249;BMP280;24045;51.138;17.126;2023-08-21T19:56:14;100810.40;;;21.53
38249;BMP280;24045;51.138;17.126;2023-08-21T20:11:17;100812.82;;;21.19
38249;BMP280;24045;51.138;17.126;2023-08-21T20:26:20;100833.13;;;20.94
38249;BMP280;24045;51.138;17.126;2023-08-21T20:41:23;100824.36;;;20.69
38249;BMP280;24045;51.138;17.126;2023-08-21T20:56:26;100836.98;;;20.41
38249;BMP280;24045;51.138;17.126;2023-08-21T21:11:29;100833.58;;;20.12
38249;BMP280;24045;51.138;17.126;2023-08-21T21:26:33;100836.16;;;19.91
38249;BMP280;24045;51.138;17.126;2023-08-21T21:41:36;100819.13;;;19.75
38249;BMP280;24045;51.138;17.126;2023-08-21T21:56:39;100837.38;;;19.56
38249;BMP280;24045;51.138;17.126;2023-08-21T22:11:42;100846.46;;;19.41
38249;BMP280;24045;51.138;17.126;2023-08-21T22:26:44;100835.43;;;19.33
38249;BMP280;24045;51.138;17.126;2023-08-21T22:41:47;100832.55;;;19.23
38249;BMP280;24045;51.138;17.126;2023-08-21T22:56:50;100828.64;;;19.16
38249;BMP280;24045;51.138;17.126;2023-08-21T23:11:53;100814.57;;;19.06
38249;BMP280;24045;51.138;17.126;2023-08-21T23:26:55;100805.56;;;18.96
38249;BMP280;24045;51.138;17.126;2023-08-21T23:41:58;100799.60;;;18.89
38249;BMP280;24045;51.138;17.126;2023-08-21T23:57:01;100808.41;;;18.80
